Time;durP1;ratioP1;P1;durP2;ratioP2;P2;SDS_P1;SDS_P2;PMS_P1;PMS_P2;Temp;Humidity;BMP_temperature;BMP_pressure;BME280_temperature;BME280_humidity;BME280_pressure;Samples;Min_cycle;Max_cycle;Signal;HPM_P1;HPM_P2
2022/08/09 00:01:37;;;;;;;0.32;0.20;;;24.60;49.40;;;;;;6308763;27;20051;-37
2022/08/09 00:04:54;;;;;;;0.35;0.30;;;24.60;49.40;;;;;;6330189;27;20050;-37
2022/08/09 00:08:16;;;;;;;;;;;24.60;49.40;;;;;;6311542;27;20046;-39
2022/08/09 00:11:34;;;;;;;0.85;0.40;;;24.50;49.30;;;;;;6331121;27;20814;-38
2022/08/09 00:14:56;;;;;;;;;;;24.50;49.30;;;;;;6314789;27;20039;-37
2022/08/09 00:17:58;;;;;;;0.40;0.40;;;24.60;49.30;;;;;;6329377;27;20757;-37
2022/08/09 00:21:12;;;;;;;0.30;0.30;;;24.50;49.20;;;;;;6313264;27;20042;-37
2022/08/09 00:24:15;;;;;;;0.45;0.30;;;24.50;49.30;;;;;;6324868;27;20067;-37
2022/08/09 00:27:20;;;;;;;0.60;0.30;;;24.50;49.30;;;;;;6302992;27;20057;-39
2022/08/09 00:30:22;;;;;;;0.30;0.30;;;24.60;49.50;;;;;;6327912;27;20035;-41
2022/08/09 00:33:27;;;;;;;0.30;0.20;;;24.60;49.40;;;;;;6330844;27;20101;-42
2022/08/09 00:36:49;;;;;;;0.30;0.30;;;24.50;49.40;;;;;;6314846;27;21075;-38
2022/08/09 00:39:53;;;;;;;0.68;0.47;;;24.60;49.50;;;;;;6331637;27;20066;-40
2022/08/09 00:43:15;;;;;;;0.40;0.30;;;24.60;49.40;;;;;;6317977;27;20418;-38
2022/08/09 00:46:37;;;;;;;0.40;0.25;;;24.70;49.50;;;;;;6305395;27;20039;-40
2022/08/09 00:49:57;;;;;;;0.47;0.40;;;24.70;49.50;;;;;;6330479;27;20167;-39
2022/08/09 00:53:00;;;;;;;0.40;0.30;;;24.70;49.50;;;;;;6332386;27;20043;-39
2022/08/09 00:56:13;;;;;;;0.40;0.30;;;24.70;49.50;;;;;;6332830;27;20882;-41
2022/08/09 00:59:15;;;;;;;0.45;0.40;;;24.70;49.50;;;;;;6309706;27;20047;-40
2022/08/09 01:02:41;;;;;;;0.82;0.40;;;24.70;49.50;;;;;;6317915;27;20051;-40
2022/08/09 01:05:49;;;;;;;0.40;0.30;;;24.50;49.30;;;;;;6290784;27;20027;-41
2022/08/09 01:09:04;;;;;;;0.40;0.20;;;24.50;49.40;;;;;;6315742;27;20579;-39
2022/08/09 01:12:32;;;;;;;0.50;0.20;;;24.60;49.40;;;;;;6327807;27;20049;-38
2022/08/09 01:15:42;;;;;;;0.50;0.38;;;24.70;49.50;;;;;;6307351;27;20103;-39
2022/08/09 01:19:04;;;;;;;0.60;0.40;;;24.50;49.40;;;;;;6327317;27;20050;-40
2022/08/09 01:22:17;;;;;;;0.63;0.40;;;24.70;49.50;;;;;;6292508;27;20179;-38
2022/08/09 01:25:36;;;;;;;0.50;0.50;;;24.30;49.20;;;;;;6325578;27;20967;-39
2022/08/09 01:28:46;;;;;;;0.40;0.40;;;24.70;49.40;;;;;;6326050;27;20043;-38
2022/08/09 01:31:50;;;;;;;0.57;0.30;;;24.80;49.40;;;;;;6308980;27;20439;-38
2022/08/09 01:35:15;;;;;;;0.30;0.30;;;24.60;49.30;;;;;;6310326;27;20793;-39
2022/08/09 01:38:41;;;;;;;0.30;0.30;;;24.80;49.40;;;;;;6303806;27;20049;-38
2022/08/09 01:41:48;;;;;;;0.30;0.30;;;24.70;49.30;;;;;;6300688;27;20505;-38
2022/08/09 01:45:02;;;;;;;0.50;0.40;;;24.70;49.30;;;;;;6323377;27;20059;-39
2022/08/09 01:48:08;;;;;;;0.22;0.22;;;24.70;49.30;;;;;;6322461;27;20590;-38
2022/08/09 01:51:12;;;;;;;0.88;0.40;;;24.60;49.30;;;;;;6323965;27;20355;-38
2022/08/09 01:54:29;;;;;;;0.30;0.30;;;24.60;49.20;;;;;;6318469;27;20051;-38
2022/08/09 01:57:37;;;;;;;0.47;0.47;;;24.60;49.20;;;;;;6322633;27;20303;-38
2022/08/09 02:00:50;;;;;;;0.40;0.40;;;24.60;49.20;;;;;;6285391;27;20784;-38
2022/08/09 02:03:55;;;;;;;0.98;0.40;;;24.70;49.20;;;;;;6324752;27;20072;-40
2022/08/09 02:07:08;;;;;;;0.50;0.35;;;24.70;49.30;;;;;;6323669;27;20055;-38
2022/08/09 02:10:33;;;;;;;0.43;0.40;;;24.70;49.30;;;;;;6310650;27;20043;-38
2022/08/09 02:13:36;;;;;;;0.73;0.30;;;24.60;49.20;;;;;;6329965;27;20331;-38
2022/08/09 02:16:43;;;;;;;0.20;0.20;;;24.60;49.20;;;;;;6327814;27;20045;-40
2022/08/09 02:20:00;;;;;;;0.38;0.30;;;24.70;49.20;;;;;;6327125;27;20045;-39
2022/08/09 02:23:08;;;;;;;0.43;0.25;;;24.70;49.20;;;;;;6324862;27;20255;-38
2022/08/09 02:26:13;;;;;;;0.30;0.30;;;24.60;49.20;;;;;;6307417;27;20893;-39
2022/08/09 02:29:34;;;;;;;0.30;0.30;;;24.70;49.30;;;;;;6322152;27;20054;-38
2022/08/09 02:32:42;;;;;;;0.25;0.20;;;24.70;49.20;;;;;;6329126;27;20362;-38
2022/08/09 02:35:50;;;;;;;1.55;0.30;;;24.70;49.20;;;;;;6326269;27;20278;-38
2022/08/09 02:39:09;;;;;;;0.63;0.35;;;24.70;49.20;;;;;;6323214;27;20043;-38
2022/08/09 02:42:19;;;;;;;1.03;0.30;;;24.50;49.10;;;;;;6312164;27;20057;-39
2022/08/09 02:45:28;;;;;;;0.35;0.30;;;24.70;49.20;;;;;;6332296;27;20041;-40
2022/08/09 02:48:33;;;;;;;0.65;0.38;;;24.60;49.10;;;;;;6330657;27;20126;-38
2022/08/09 02:51:37;;;;;;;0.30;0.30;;;24.60;49.10;;;;;;6326495;27;20133;-38
2022/08/09 02:54:43;;;;;;;0.80;0.30;;;24.70;49.20;;;;;;6322385;27;20043;-40
2022/08/09 02:57:58;;;;;;;0.40;0.40;;;24.60;49.10;;;;;;6327255;27;20042;-40
2022/08/09 03:01:21;;;;;;;0.60;0.30;;;24.50;49.10;;;;;;6312507;27;20148;-39
2022/08/09 03:04:44;;;;;;;0.30;0.30;;;24.50;49.10;;;;;;6311321;27;20107;-40
2022/08/09 03:07:48;;;;;;;0.20;0.20;;;24.60;49.10;;;;;;6308581;27;20046;-38
2022/08/09 03:10:59;;;;;;;0.50;0.27;;;24.60;49.10;;;;;;6315213;27;20036;-38
2022/08/09 03:14:02;;;;;;;0.77;0.40;;;24.50;49.10;;;;;;6334639;27;20047;-40
2022/08/09 03:17:04;;;;;;;0.50;0.50;;;24.60;49.20;;;;;;6336503;27;20047;-41
2022/08/09 03:20:08;;;;;;;0.70;0.32;;;24.50;49.10;;;;;;6334664;27;20046;-38
2022/08/09 03:23:13;;;;;;;0.30;0.30;;;24.60;49.20;;;;;;6333287;27;20120;-38
2022/08/09 03:26:28;;;;;;;0.80;0.40;;;24.50;49.20;;;;;;6335766;27;20827;-35
2022/08/09 03:29:34;;;;;;;0.80;0.38;;;24.60;49.20;;;;;;6334831;27;20042;-36
2022/08/09 03:32:57;;;;;;;0.50;0.30;;;24.40;49.20;;;;;;6318824;27;20039;-37
2022/08/09 03:36:01;;;;;;;0.95;0.40;;;24.50;49.30;;;;;;6334884;27;20043;-37
2022/08/09 03:39:15;;;;;;;1.15;0.40;;;24.60;49.40;;;;;;6330526;27;20155;-37
2022/08/09 03:42:17;;;;;;;0.50;0.30;;;24.60;49.40;;;;;;6329903;27;20066;-37
2022/08/09 03:45:27;;;;;;;0.57;0.40;;;24.50;49.30;;;;;;6325406;27;20042;-37
2022/08/09 03:48:49;;;;;;;;;;;24.50;49.30;;;;;;6315839;27;20050;-39
2022/08/09 03:51:58;;;;;;;0.20;0.20;;;24.50;49.30;;;;;;6331503;27;20935;-36
2022/08/09 03:55:05;;;;;;;;;;;24.60;49.30;;;;;;6328762;27;20050;-37
2022/08/09 03:58:11;;;;;;;0.32;0.32;;;24.40;49.20;;;;;;6330649;27;20027;-37
2022/08/09 04:01:18;;;;;;;0.38;0.30;;;24.50;49.20;;;;;;6332790;27;20035;-37
2022/08/09 04:04:25;;;;;;;0.40;0.30;;;24.50;49.30;;;;;;6334401;27;20031;-37
2022/08/09 04:07:34;;;;;;;0.70;0.30;;;24.50;49.30;;;;;;6333632;27;20045;-37
2022/08/09 04:10:54;;;;;;;0.82;0.30;;;24.40;49.20;;;;;;6315588;27;20045;-39
2022/08/09 04:13:56;;;;;;;0.40;0.30;;;24.50;49.30;;;;;;6335369;27;21295;-37
2022/08/09 04:17:17;;;;;;;;;;;24.50;49.30;;;;;;6315211;27;20031;-37
2022/08/09 04:20:19;;;;;;;0.75;0.40;;;24.50;49.30;;;;;;6329521;27;19930;-39
2022/08/09 04:23:22;;;;;;;0.25;0.25;;;24.50;49.20;;;;;;6326184;27;20848;-38
2022/08/09 04:26:26;;;;;;;0.30;0.30;;;24.30;49.20;;;;;;6328909;27;20426;-38
2022/08/09 04:29:42;;;;;;;0.43;0.30;;;24.50;49.30;;;;;;6314232;27;21237;-37
2022/08/09 04:32:51;;;;;;;0.30;0.30;;;24.50;49.30;;;;;;6329024;27;20039;-39
2022/08/09 04:35:53;;;;;;;0.30;0.20;;;24.30;49.20;;;;;;6328727;27;21116;-37
2022/08/09 04:38:59;;;;;;;0.60;0.30;;;24.50;49.30;;;;;;6326372;27;20051;-37
2022/08/09 04:42:01;;;;;;;0.50;0.22;;;24.30;49.30;;;;;;6311301;27;20213;-37
2022/08/09 04:45:04;;;;;;;0.25;0.25;;;24.40;49.30;;;;;;6328194;27;20046;-37
2022/08/09 04:48:06;;;;;;;0.30;0.30;;;24.30;49.20;;;;;;6329270;27;20072;-37
2022/08/09 04:51:11;;;;;;;0.30;0.30;;;24.30;49.20;;;;;;6326554;27;20158;-37
2022/08/09 04:54:18;;;;;;;0.28;0.28;;;24.40;49.30;;;;;;6327990;27;20123;-39
2022/08/09 04:57:20;;;;;;;0.38;0.30;;;24.40;49.20;;;;;;6328401;27;20134;-37
2022/08/09 05:00:28;;;;;;;0.38;0.30;;;24.30;49.20;;;;;;6326074;27;20054;-37
2022/08/09 05:03:35;;;;;;;0.30;0.30;;;24.40;49.30;;;;;;6326791;27;20038;-36
2022/08/09 05:06:44;;;;;;;0.40;0.30;;;24.30;49.20;;;;;;6318079;27;20040;-37
2022/08/09 05:09:52;;;;;;;0.65;0.30;;;24.40;49.30;;;;;;6325445;27;20049;-37
2022/08/09 05:12:53;;;;;;;0.40;0.30;;;24.40;49.30;;;;;;6325344;27;20030;-38
2022/08/09 05:15:55;;;;;;;0.40;0.40;;;24.30;49.20;;;;;;6327688;27;20050;-37
2022/08/09 05:18:58;;;;;;;0.47;0.40;;;24.30;49.20;;;;;;6327118;27;20047;-37
2022/08/09 05:22:01;;;;;;;0.50;0.30;;;24.40;49.30;;;;;;6292410;27;20097;-37
2022/08/09 05:25:05;;;;;;;0.50;0.50;;;24.30;49.20;;;;;;6307251;27;20889;-37
2022/08/09 05:28:07;;;;;;;0.30;0.30;;;24.40;49.90;;;;;;6329912;27;20089;-38
2022/08/09 05:31:09;;;;;;;0.65;0.30;;;24.40;49.30;;;;;;6324860;27;20035;-38
2022/08/09 05:34:11;;;;;;;0.45;0.40;;;24.40;49.30;;;;;;6331316;27;20154;-39
2022/08/09 05:37:21;;;;;;;1.35;0.30;;;24.30;49.30;;;;;;6313566;27;20097;-37
2022/08/09 05:40:27;;;;;;;0.40;0.38;;;24.30;49.20;;;;;;6330147;27;20146;-37
2022/08/09 05:43:29;;;;;;;0.50;0.40;;;24.30;49.20;;;;;;6327381;27;20136;-37
2022/08/09 05:46:33;;;;;;;0.40;0.40;;;24.50;49.30;;;;;;6320752;27;20100;-37
2022/08/09 05:49:34;;;;;;;0.50;0.30;;;24.40;49.30;;;;;;6327998;27;20211;-38
2022/08/09 05:52:56;;;;;;;;;;;24.40;49.30;;;;;;6306577;27;20050;-38
2022/08/09 05:55:59;;;;;;;0.65;0.40;;;24.30;49.30;;;;;;6319866;27;21172;-38
2022/08/09 05:59:02;;;;;;;0.45;0.30;;;24.30;49.20;;;;;;6319870;27;20038;-38
2022/08/09 06:02:08;;;;;;;0.40;0.40;;;24.20;49.20;;;;;;6313695;27;20158;-38
2022/08/09 06:05:11;;;;;;;0.68;0.30;;;24.20;49.20;;;;;;6318917;27;20048;-38
2022/08/09 06:08:14;;;;;;;0.40;0.40;;;24.30;49.30;;;;;;6315375;27;20035;-39
2022/08/09 06:11:21;;;;;;;0.57;0.30;;;24.30;49.30;;;;;;6318847;27;20035;-37
2022/08/09 06:14:49;;;;;;;0.52;0.40;;;24.30;49.40;;;;;;6301057;27;20031;-37
2022/08/09 06:17:51;;;;;;;0.80;0.40;;;24.30;49.50;;;;;;6304666;27;20996;-37
2022/08/09 06:20:55;;;;;;;0.20;0.20;;;24.30;49.40;;;;;;6311028;27;20860;-38
2022/08/09 06:23:59;;;;;;;0.40;0.40;;;24.30;49.40;;;;;;6312094;27;20083;-38
2022/08/09 06:27:04;;;;;;;0.32;0.30;;;24.30;49.40;;;;;;6310606;27;20049;-37
2022/08/09 06:30:07;;;;;;;0.40;0.30;;;24.40;49.50;;;;;;6314502;27;20074;-38
2022/08/09 06:33:11;;;;;;;0.45;0.40;;;24.40;49.60;;;;;;6307372;27;20084;-37
2022/08/09 06:36:32;;;;;;;0.90;0.50;;;24.30;49.50;;;;;;6284156;27;20042;-38
2022/08/09 06:39:34;;;;;;;0.30;0.30;;;24.40;49.50;;;;;;6306712;27;20035;-39
2022/08/09 06:42:57;;;;;;;0.50;0.50;;;24.50;49.60;;;;;;6284600;27;20096;-37
2022/08/09 06:45:59;;;;;;;0.55;0.50;;;24.30;49.50;;;;;;6274704;27;20049;-39
2022/08/09 06:49:12;;;;;;;0.70;0.50;;;24.60;49.70;;;;;;6298756;27;20050;-39
2022/08/09 06:52:17;;;;;;;0.57;0.47;;;24.30;49.50;;;;;;6269898;27;20051;-39
2022/08/09 06:55:20;;;;;;;0.40;0.30;;;24.40;49.60;;;;;;6278689;27;20065;-41
2022/08/09 06:58:25;;;;;;;1.15;0.47;;;24.40;49.70;;;;;;6283614;27;21149;-38
2022/08/09 07:01:47;;;;;;;0.50;0.50;;;24.30;49.70;;;;;;6233654;27;20047;-39
2022/08/09 07:05:03;;;;;;;0.50;0.40;;;24.50;49.80;;;;;;6266062;27;20047;-37
2022/08/09 07:08:04;;;;;;;1.77;0.70;;;24.40;49.80;;;;;;6263321;27;20050;-39
2022/08/09 07:11:07;;;;;;;0.93;0.40;;;24.50;49.80;;;;;;6253906;27;20039;-38
2022/08/09 07:14:13;;;;;;;0.68;0.57;;;24.50;49.90;;;;;;6241322;27;21072;-38
2022/08/09 07:17:16;;;;;;;0.50;0.50;;;24.60;50.20;;;;;;6263064;27;20061;-39
2022/08/09 07:20:18;;;;;;;0.75;0.52;;;24.60;50.00;;;;;;6264201;27;20047;-39
2022/08/09 07:23:20;;;;;;;1.00;0.50;;;24.60;49.90;;;;;;6260681;27;20047;-38
2022/08/09 07:26:24;;;;;;;0.50;0.50;;;24.60;50.40;;;;;;6248743;27;20043;-38
2022/08/09 07:29:27;;;;;;;1.30;0.50;;;24.70;50.00;;;;;;6252932;27;21015;-39
2022/08/09 07:32:39;;;;;;;1.25;0.60;;;24.50;49.90;;;;;;6223557;27;21769;-38
2022/08/09 07:35:43;;;;;;;1.23;0.55;;;24.60;50.60;;;;;;6251890;27;20054;-39
2022/08/09 07:38:58;;;;;;;0.57;0.57;;;24.60;50.10;;;;;;6263832;27;20050;-37
2022/08/09 07:42:03;;;;;;;0.38;0.30;;;24.70;50.10;;;;;;6250376;27;20043;-38
2022/08/09 07:45:07;;;;;;;1.33;0.68;;;24.60;50.00;;;;;;6258077;27;20114;-39
2022/08/09 07:48:29;;;;;;;1.35;0.60;;;24.50;50.00;;;;;;6233967;27;20119;-38
2022/08/09 07:51:33;;;;;;;1.05;0.68;;;24.60;50.00;;;;;;6261455;27;20286;-38
2022/08/09 07:54:54;;;;;;;0.40;0.40;;;24.70;50.10;;;;;;6238036;27;20047;-39
2022/08/09 07:57:58;;;;;;;0.95;0.50;;;24.60;50.10;;;;;;6263097;27;20043;-40
2022/08/09 08:01:00;;;;;;;0.68;0.50;;;24.70;50.20;;;;;;6264796;27;20055;-40
2022/08/09 08:04:07;;;;;;;0.30;0.30;;;24.70;50.20;;;;;;6269641;27;20057;-38
2022/08/09 08:07:12;;;;;;;0.85;0.60;;;24.60;50.10;;;;;;6256819;27;20042;-38
2022/08/09 08:10:33;;;;;;;0.60;0.50;;;24.70;50.10;;;;;;6233101;27;20054;-39
2022/08/09 08:13:37;;;;;;;1.17;0.43;;;24.70;50.10;;;;;;6231675;27;20915;-38
2022/08/09 08:16:57;;;;;;;0.65;0.60;;;24.70;50.10;;;;;;6260699;27;20063;-41
2022/08/09 08:20:11;;;;;;;0.95;0.52;;;24.70;50.10;;;;;;6252965;27;20074;-40
2022/08/09 08:23:16;;;;;;;0.85;0.40;;;24.90;50.10;;;;;;6255375;27;20043;-38
2022/08/09 08:26:19;;;;;;;0.40;0.40;;;24.80;50.10;;;;;;6248357;27;20043;-38
2022/08/09 08:29:40;;;;;;;0.63;0.43;;;24.90;50.10;;;;;;6217689;27;20063;-40
2022/08/09 08:32:52;;;;;;;1.45;0.40;;;24.80;50.00;;;;;;6244824;27;20144;-39
2022/08/09 08:35:55;;;;;;;0.55;0.40;;;24.80;50.00;;;;;;6224835;27;21230;-38
2022/08/09 08:39:02;;;;;;;0.90;0.40;;;24.80;50.00;;;;;;6206526;27;20066;-40
2022/08/09 08:42:05;;;;;;;1.30;0.52;;;24.90;50.00;;;;;;6214174;27;20166;-39
2022/08/09 08:45:10;;;;;;;0.60;0.40;;;24.90;50.00;;;;;;6214336;27;20162;-38
2022/08/09 08:48:16;;;;;;;0.60;0.40;;;24.80;49.90;;;;;;6238856;27;21016;-40
2022/08/09 08:51:21;;;;;;;0.65;0.40;;;24.90;50.00;;;;;;6248210;27;20047;-41
2022/08/09 08:54:24;;;;;;;0.52;0.40;;;24.90;50.00;;;;;;6196059;27;20043;-40
2022/08/09 08:57:31;;;;;;;0.93;0.45;;;24.80;49.80;;;;;;6189361;27;20746;-40
2022/08/09 09:00:36;;;;;;;0.50;0.30;;;24.90;49.90;;;;;;6255743;27;22689;-40
2022/08/09 09:03:41;;;;;;;0.85;0.47;;;24.90;49.90;;;;;;6218049;27;20043;-40
2022/08/09 09:06:47;;;;;;;0.50;0.38;;;24.80;49.80;;;;;;6239551;27;21334;-40
2022/08/09 09:09:51;;;;;;;0.63;0.47;;;24.90;49.80;;;;;;6253922;27;20053;-39
2022/08/09 09:13:04;;;;;;;0.47;0.30;;;25.10;49.90;;;;;;6254467;27;30651;-38
2022/08/09 09:16:12;;;;;;;1.45;0.20;;;24.90;49.70;;;;;;6238598;27;20049;-38
2022/08/09 09:19:16;;;;;;;0.30;0.30;;;24.90;49.60;;;;;;6268031;27;20921;-38
2022/08/09 09:22:50;;;;;;;0.60;0.40;;;25.00;49.60;;;;;;6255125;27;20050;-39
2022/08/09 09:25:52;;;;;;;0.90;0.77;;;24.90;49.50;;;;;;6268541;27;20071;-39
2022/08/09 09:29:06;;;;;;;2.47;0.50;;;25.10;49.60;;;;;;6255350;27;20027;-39
2022/08/09 09:32:20;;;;;;;0.47;0.40;;;25.00;49.40;;;;;;6256870;27;20046;-38
2022/08/09 09:35:52;;;;;;;0.65;0.40;;;25.10;49.40;;;;;;6214996;27;22008;-38
2022/08/09 09:39:08;;;;;;;0.80;0.40;;;25.00;49.20;;;;;;6223832;27;20042;-38
2022/08/09 09:42:23;;;;;;;0.32;0.32;;;25.00;49.10;;;;;;6225918;27;20149;-38
2022/08/09 09:45:26;;;;;;;0.57;0.35;;;25.00;49.00;;;;;;6253107;27;20121;-40
2022/08/09 09:48:34;;;;;;;0.45;0.30;;;25.10;49.00;;;;;;6254802;27;21180;-40
2022/08/09 09:51:38;;;;;;;0.40;0.30;;;25.00;48.90;;;;;;6248847;27;20048;-41
2022/08/09 09:54:42;;;;;;;0.40;0.30;;;25.00;48.90;;;;;;6226893;27;21147;-39
2022/08/09 09:57:56;;;;;;;0.60;0.25;;;25.10;48.90;;;;;;6221428;27;22232;-39
2022/08/09 10:01:17;;;;;;;0.40;0.30;;;25.30;48.90;;;;;;6261045;27;20043;-40
2022/08/09 10:04:39;;;;;;;0.30;0.20;;;25.10;48.70;;;;;;6231349;27;20042;-42
2022/08/09 10:07:41;;;;;;;1.15;0.40;;;25.10;48.60;;;;;;6260987;27;20043;-41
2022/08/09 10:11:16;;;;;;;0.77;0.50;;;25.30;48.70;;;;;;6258231;27;20039;-40
2022/08/09 10:14:38;;;;;;;0.47;0.40;;;25.20;48.60;;;;;;6233382;27;20035;-40
2022/08/09 10:17:40;;;;;;;0.60;0.30;;;25.30;48.60;;;;;;6268257;27;20042;-39
2022/08/09 10:21:06;;;;;;;0.38;0.30;;;25.10;48.50;;;;;;6262547;27;20189;-41
2022/08/09 10:24:08;;;;;;;0.30;0.30;;;25.20;48.50;;;;;;6254612;27;20043;-43
2022/08/09 10:27:17;;;;;;;0.32;0.30;;;25.10;49.00;;;;;;6280669;27;21339;-39
2022/08/09 10:30:26;;;;;;;0.40;0.40;;;25.20;48.60;;;;;;6275344;27;20054;-39
2022/08/09 10:33:48;;;;;;;0.30;0.30;;;25.30;48.50;;;;;;6253803;27;21642;-38
2022/08/09 10:37:11;;;;;;;0.50;0.40;;;25.30;48.40;;;;;;6241198;27;20634;-38
2022/08/09 10:40:16;;;;;;;0.40;0.40;;;25.30;48.40;;;;;;6268733;27;20512;-38
2022/08/09 10:43:42;;;;;;;0.45;0.30;;;25.30;48.30;;;;;;6236015;27;20253;-39
2022/08/09 10:47:27;;;;;;;0.43;0.40;;;25.30;48.30;;;;;;6266615;27;20089;-42
2022/08/09 10:54:09;;;;;;;0.40;0.30;;;25.30;48.20;;;;;;6270389;27;20162;-40
2022/08/09 10:57:15;;;;;;;0.30;0.30;;;25.20;48.00;;;;;;6241996;27;20460;-42
2022/08/09 11:00:40;;;;;;;0.77;0.40;;;25.30;48.10;;;;;;6264002;27;20205;-42
2022/08/09 11:04:19;;;;;;;0.38;0.20;;;25.30;48.00;;;;;;6218686;27;20038;-43
2022/08/09 11:07:33;;;;;;;;;;;25.30;47.90;;;;;;6252722;27;20379;-41
2022/08/09 11:10:54;;;;;;;0.47;0.30;;;25.40;47.90;;;;;;6259586;27;19927;-46
2022/08/09 11:14:28;;;;;;;0.40;0.38;;;25.10;47.70;;;;;;6265670;27;20055;-44
2022/08/09 11:17:44;;;;;;;0.20;0.20;;;25.30;47.70;;;;;;6271176;27;20085;-44
2022/08/09 11:20:46;;;;;;;0.68;0.30;;;25.30;47.70;;;;;;6287417;27;21070;-41
2022/08/09 11:23:58;;;;;;;0.35;0.30;;;25.30;47.60;;;;;;6263968;27;20281;-40
2022/08/09 11:27:01;;;;;;;0.40;0.30;;;25.20;47.40;;;;;;6245100;27;20047;-42
2022/08/09 11:30:10;;;;;;;0.30;0.30;;;25.30;48.00;;;;;;6277011;27;20177;-41
2022/08/09 11:33:41;;;;;;;0.50;0.40;;;25.30;47.40;;;;;;6230265;27;20046;-41
2022/08/09 11:36:46;;;;;;;2.70;0.35;;;25.20;47.10;;;;;;6274352;27;21036;-40
2022/08/09 11:40:06;;;;;;;0.30;0.30;;;25.30;47.20;;;;;;6252159;27;20329;-41
2022/08/09 11:43:14;;;;;;;0.75;0.43;;;25.30;47.10;;;;;;6235828;27;20344;-39
2022/08/09 11:46:16;;;;;;;0.73;0.40;;;25.30;47.00;;;;;;6268036;27;21001;-37
2022/08/09 11:50:00;;;;;;;0.70;0.40;;;25.30;46.90;;;;;;6270274;27;20143;-41
2022/08/09 11:53:23;;;;;;;0.35;0.35;;;25.30;46.70;;;;;;6244689;27;20906;-41
2022/08/09 11:56:45;;;;;;;0.40;0.40;;;25.30;46.70;;;;;;6250608;27;20917;-43
2022/08/09 11:59:49;;;;;;;0.63;0.43;;;25.30;46.60;;;;;;6267207;27;20875;-42
2022/08/09 12:02:54;;;;;;;0.55;0.38;;;25.40;46.60;;;;;;6257426;27;20046;-40
2022/08/09 12:05:58;;;;;;;0.35;0.30;;;25.40;46.50;;;;;;6253762;27;20047;-39
2022/08/09 12:09:03;;;;;;;1.15;0.40;;;25.40;46.50;;;;;;6234419;27;20089;-41
2022/08/09 12:12:08;;;;;;;0.30;0.30;;;25.40;46.40;;;;;;6214816;27;20153;-43
2022/08/09 12:15:23;;;;;;;0.63;0.35;;;25.40;46.40;;;;;;6235083;27;22074;-43
2022/08/09 12:18:47;;;;;;;0.40;0.30;;;25.40;46.40;;;;;;6234558;27;20074;-43
2022/08/09 12:22:00;;;;;;;0.30;0.30;;;25.40;46.20;;;;;;6255426;27;20047;-43
2022/08/09 12:25:12;;;;;;;0.55;0.30;;;25.30;46.00;;;;;;6227139;27;20055;-42
2022/08/09 12:28:17;;;;;;;0.28;0.20;;;25.40;46.00;;;;;;6261318;27;21066;-41
2022/08/09 12:31:39;;;;;;;0.57;0.47;;;25.40;45.90;;;;;;6221921;27;20121;-42
2022/08/09 12:35:04;;;;;;;0.63;0.40;;;25.40;45.90;;;;;;6240808;27;20140;-40
2022/08/09 12:38:21;;;;;;;0.25;0.25;;;25.40;45.70;;;;;;6247411;27;20058;-41
2022/08/09 12:41:39;;;;;;;0.30;0.30;;;25.40;45.60;;;;;;6245763;27;20130;-40
2022/08/09 12:44:42;;;;;;;0.38;0.30;;;25.50;45.60;;;;;;6231010;27;20131;-43
2022/08/09 12:47:53;;;;;;;0.38;0.30;;;25.30;45.40;;;;;;6242149;27;20049;-39
2022/08/09 12:50:57;;;;;;;0.10;0.10;;;25.40;45.40;;;;;;6260107;27;20074;-40
2022/08/09 12:54:02;;;;;;;0.43;0.32;;;25.40;45.20;;;;;;6255176;27;20101;-41
2022/08/09 12:57:04;;;;;;;0.22;0.20;;;25.40;45.10;;;;;;6265124;27;20062;-42
2022/08/09 13:00:16;;;;;;;0.20;0.20;;;25.40;45.00;;;;;;6258935;27;20150;-39
2022/08/09 13:03:27;;;;;;;0.35;0.22;;;25.40;44.90;;;;;;6188049;27;20055;-41
2022/08/09 13:06:49;;;;;;;0.30;0.30;;;25.40;44.90;;;;;;6248396;27;20063;-40
2022/08/09 13:10:00;;;;;;;0.32;0.28;;;25.30;44.80;;;;;;6233553;27;20168;-41
2022/08/09 13:13:03;;;;;;;0.30;0.30;;;25.50;44.30;;;;;;6198379;27;21494;-41
2022/08/09 13:16:15;;;;;;;0.47;0.20;;;25.40;44.80;;;;;;6256649;27;20050;-42
2022/08/09 13:19:27;;;;;;;0.35;0.30;;;25.40;44.70;;;;;;6224677;27;21550;-43
2022/08/09 13:22:50;;;;;;;0.38;0.30;;;25.20;44.50;;;;;;6209167;27;22177;-43
2022/08/09 13:26:06;;;;;;;0.20;0.20;;;25.50;44.80;;;;;;6242764;27;20054;-39
2022/08/09 13:29:13;;;;;;;0.20;0.20;;;25.50;44.70;;;;;;6222548;27;20051;-39
2022/08/09 13:32:16;;;;;;;0.35;0.20;;;25.50;44.60;;;;;;6243428;27;20047;-41
2022/08/09 13:35:37;;;;;;;0.40;0.25;;;25.70;44.80;;;;;;6236725;27;20043;-40
2022/08/09 13:38:59;;;;;;;0.30;0.30;;;25.50;44.60;;;;;;6217023;27;20050;-39
2022/08/09 13:42:20;;;;;;;0.50;0.30;;;25.50;44.60;;;;;;6217893;27;20043;-39
2022/08/09 13:45:22;;;;;;;1.42;0.30;;;25.50;44.50;;;;;;6237806;27;20170;-39
2022/08/09 13:48:44;;;;;;;0.25;0.20;;;25.50;44.40;;;;;;6207114;27;20043;-40
2022/08/09 13:51:49;;;;;;;0.35;0.30;;;25.40;44.30;;;;;;6246068;27;20042;-41
2022/08/09 13:55:04;;;;;;;0.43;0.40;;;25.30;44.20;;;;;;6239939;27;20119;-41
2022/08/09 13:58:08;;;;;;;0.30;0.30;;;25.50;44.40;;;;;;6244717;27;22107;-44
2022/08/09 14:01:13;;;;;;;0.50;0.40;;;25.40;44.20;;;;;;6255808;27;20173;-39
2022/08/09 14:04:34;;;;;;;0.22;0.22;;;25.50;44.30;;;;;;6197624;27;20050;-40
2022/08/09 14:07:36;;;;;;;0.30;0.25;;;25.50;44.30;;;;;;6229893;27;20127;-39
2022/08/09 14:10:45;;;;;;;0.30;0.22;;;25.50;44.30;;;;;;6203009;27;20043;-41
2022/08/09 14:13:54;;;;;;;0.20;0.20;;;25.50;44.30;;;;;;6212474;27;20060;-39
2022/08/09 14:17:16;;;;;;;0.20;0.20;;;25.40;44.20;;;;;;6226425;27;20047;-42
2022/08/09 14:20:23;;;;;;;0.30;0.25;;;25.50;44.30;;;;;;6248539;27;22113;-40
2022/08/09 14:23:30;;;;;;;0.22;0.20;;;25.40;44.20;;;;;;6223509;27;20046;-38
2022/08/09 14:26:52;;;;;;;;;;;25.50;44.30;;;;;;6249970;27;20039;-38
2022/08/09 14:29:55;;;;;;;0.30;0.20;;;25.50;44.40;;;;;;6254372;27;19926;-39
2022/08/09 14:33:18;;;;;;;0.30;0.22;;;25.50;44.40;;;;;;6231509;27;21154;-41
2022/08/09 14:36:23;;;;;;;0.20;0.20;;;25.50;44.30;;;;;;6277784;27;20049;-40
2022/08/09 14:39:26;;;;;;;0.38;0.20;;;25.30;44.10;;;;;;6258657;27;20345;-40
2022/08/09 14:42:48;;;;;;;0.20;0.20;;;25.40;44.10;;;;;;6228113;27;21593;-42
2022/08/09 14:45:50;;;;;;;0.30;0.30;;;25.40;44.10;;;;;;6263779;27;20123;-42
2022/08/09 14:49:12;;;;;;;0.38;0.25;;;25.50;44.20;;;;;;6237316;27;20034;-38
2022/08/09 14:52:17;;;;;;;0.30;0.30;;;25.50;44.30;;;;;;6258436;27;20039;-40
2022/08/09 14:55:18;;;;;;;0.30;0.30;;;25.40;44.20;;;;;;6235507;27;21222;-39
2022/08/09 14:58:23;;;;;;;0.38;0.30;;;25.40;44.20;;;;;;6255695;27;22133;-45
2022/08/09 15:01:27;;;;;;;0.40;0.30;;;25.50;44.30;;;;;;6246476;27;20119;-39
2022/08/09 15:04:28;;;;;;;0.32;0.25;;;25.40;44.20;;;;;;6232387;27;20043;-41
2022/08/09 15:07:30;;;;;;;0.50;0.40;;;25.30;44.20;;;;;;6247176;27;20397;-41
2022/08/09 15:10:39;;;;;;;0.30;0.20;;;25.40;44.20;;;;;;6225821;27;20348;-38
2022/08/09 15:13:42;;;;;;;0.20;0.20;;;25.40;44.30;;;;;;6220609;27;20346;-40
2022/08/09 15:17:03;;;;;;;0.25;0.25;;;25.50;44.30;;;;;;6233070;27;20477;-40
2022/08/09 15:20:07;;;;;;;0.30;0.30;;;25.40;44.20;;;;;;6229437;27;20282;-40
2022/08/09 15:23:13;;;;;;;0.30;0.30;;;25.30;44.10;;;;;;6229676;27;30663;-42
2022/08/09 15:26:34;;;;;;;;;;;25.40;44.20;;;;;;6213372;27;21164;-40
2022/08/09 15:29:36;;;;;;;0.17;0.17;;;25.50;44.30;;;;;;6246701;27;20230;-41
2022/08/09 15:32:58;;;;;;;0.30;0.28;;;25.50;44.30;;;;;;6213909;27;20513;-41
2022/08/09 15:36:00;;;;;;;0.50;0.40;;;25.50;44.30;;;;;;6240164;27;20271;-39
2022/08/09 15:39:03;;;;;;;0.20;0.20;;;25.50;44.30;;;;;;6218020;27;20407;-38
2022/08/09 15:42:05;;;;;;;0.30;0.30;;;25.40;44.30;;;;;;6247772;27;20486;-39
2022/08/09 15:45:10;;;;;;;0.50;0.30;;;25.40;44.30;;;;;;6254486;27;20685;-39
2022/08/09 15:48:11;;;;;;;0.20;0.20;;;25.50;44.40;;;;;;6200353;27;20265;-39
2022/08/09 15:51:29;;;;;;;0.20;0.20;;;25.50;44.40;;;;;;6246418;27;21366;-39
2022/08/09 15:54:51;;;;;;;0.50;0.30;;;25.60;44.50;;;;;;6233065;27;21800;-41
2022/08/09 15:57:52;;;;;;;0.30;0.30;;;25.50;44.40;;;;;;6252269;27;20287;-40
2022/08/09 16:00:55;;;;;;;0.40;0.20;;;25.50;44.30;;;;;;6242557;27;20874;-38
2022/08/09 16:03:58;;;;;;;0.40;0.30;;;25.60;44.40;;;;;;6246121;27;20201;-39
2022/08/09 16:07:00;;;;;;;0.68;0.30;;;25.50;44.30;;;;;;6259831;27;20247;-40
2022/08/09 16:10:06;;;;;;;0.40;0.30;;;25.50;44.30;;;;;;6246795;27;21126;-39
2022/08/09 16:13:12;;;;;;;0.35;0.30;;;25.50;44.30;;;;;;6267841;27;20232;-38
2022/08/09 16:16:35;;;;;;;1.10;0.43;;;25.60;44.30;;;;;;6243588;27;20047;-41
2022/08/09 16:19:39;;;;;;;0.38;0.30;;;25.60;44.40;;;;;;6277413;27;20082;-41
2022/08/09 16:23:00;;;;;;;0.45;0.30;;;25.50;44.30;;;;;;6271686;27;20039;-41
2022/08/09 16:26:03;;;;;;;0.20;0.20;;;25.50;44.30;;;;;;6301714;27;20043;-41
2022/08/09 16:29:07;;;;;;;0.30;0.28;;;25.60;44.30;;;;;;6298907;27;20817;-40
2022/08/09 16:32:14;;;;;;;0.30;0.30;;;25.50;44.20;;;;;;6282490;27;20049;-41
2022/08/09 16:35:36;;;;;;;0.60;0.30;;;25.60;44.30;;;;;;6289698;27;20065;-41